Time;durP1;ratioP1;P1;durP2;ratioP2;P2;SDS_P1;SDS_P2;PMS_P1;PMS_P2;Temp;Humidity;BMP_temperature;BMP_pressure;BME280_temperature;BME280_humidity;BME280_pressure;Samples;Min_cycle;Max_cycle;Signal;HPM_P1;HPM_P2
2023/01/02 00:00:28;;;;;;;;;2.00;2.00;;;;;16.21;100.00;100930.00;5077009;28;58203;-74
2023/01/02 00:02:54;;;;;;;;;4.00;2.00;;;;;16.18;100.00;100924.69;5076594;28;45454;-73
2023/01/02 00:05:19;;;;;;;;;4.00;4.00;;;;;16.18;100.00;100931.81;5077505;28;53717;-73
2023/01/02 00:07:44;;;;;;;;;4.00;2.00;;;;;16.17;100.00;100927.38;5077788;28;50596;-75
2023/01/02 00:10:10;;;;;;;;;2.00;2.00;;;;;16.17;100.00;100948.69;5077716;28;46110;-73
2023/01/02 00:12:35;;;;;;;;;7.67;2.00;;;;;16.16;100.00;100957.59;5077298;28;45224;-74
2023/01/02 00:15:01;;;;;;;;;2.00;2.00;;;;;16.14;100.00;100960.28;5078797;28;45284;-73
2023/01/02 00:17:27;;;;;;;;;3.67;3.00;;;;;16.12;100.00;100961.19;5078533;28;45474;-74
2023/01/02 00:19:52;;;;;;;;;2.00;2.00;;;;;16.10;100.00;100963.88;5078144;28;45727;-77
2023/01/02 00:22:18;;;;;;;;;2.00;2.00;;;;;16.10;100.00;100957.66;5077725;28;61388;-74
2023/01/02 00:24:43;;;;;;;;;2.00;2.00;;;;;16.06;100.00;100966.56;5076863;28;55359;-75
2023/01/02 00:27:08;;;;;;;;;4.00;1.67;;;;;16.04;100.00;100953.28;5075355;28;54898;-73
2023/01/02 00:29:34;;;;;;;;;6.00;3.00;;;;;16.00;100.00;100970.19;5077396;28;59536;-72
2023/01/02 00:31:59;;;;;;;;;3.67;2.00;;;;;15.97;100.00;100965.75;5058795;28;60455;-74
2023/01/02 00:34:25;;;;;;;;;1.00;1.00;;;;;15.95;100.00;100977.31;5076876;28;45753;-75
2023/01/02 00:36:50;;;;;;;;;4.33;2.00;;;;;15.90;100.00;100973.81;5060876;28;45170;-74
2023/01/02 00:39:16;;;;;;;;;1.00;1.00;;;;;15.88;100.00;100979.16;5076810;28;57672;-75
2023/01/02 00:41:41;;;;;;;;;1.00;1.00;;;;;15.86;100.00;100983.59;5060099;28;45363;-73
2023/01/02 00:44:06;;;;;;;;;1.00;1.00;;;;;15.80;100.00;100975.66;5077454;28;53591;-74
2023/01/02 00:46:32;;;;;;;;;1.00;1.00;;;;;15.78;100.00;100973.94;5077663;28;45343;-75
2023/01/02 00:48:57;;;;;;;;;3.00;1.00;;;;;15.76;100.00;100975.69;5075760;28;58752;-74
2023/01/02 00:51:22;;;;;;;;;1.00;1.00;;;;;15.71;100.00;100975.72;5076338;27;57914;-73
2023/01/02 00:53:48;;;;;;;;;0.00;0.00;;;;;15.69;100.00;100975.75;5078061;28;45531;-73
2023/01/02 00:56:13;;;;;;;;;1.00;1.00;;;;;15.67;100.00;100966.03;5077198;28;45430;-74
2023/01/02 00:58:38;;;;;;;;;0.00;0.00;;;;;15.66;100.00;100970.47;5077412;28;46642;-74
2023/01/02 01:01:04;;;;;;;;;3.33;1.00;;;;;15.65;100.00;100979.31;5077058;28;47298;-74
2023/01/02 01:03:29;;;;;;;;;2.00;0.00;;;;;15.62;100.00;100979.34;5076567;28;45394;-75
2023/01/02 01:05:55;;;;;;;;;3.00;2.00;;;;;15.62;100.00;100974.00;5077954;28;45461;-74
2023/01/02 01:08:20;;;;;;;;;1.00;1.00;;;;;15.62;100.00;100981.13;5076812;28;55207;-74
2023/01/02 01:10:46;;;;;;;;;1.00;1.00;;;;;15.59;100.00;100981.13;5075792;28;45240;-75
2023/01/02 01:13:11;;;;;;;;;1.00;1.00;;;;;15.60;100.00;100997.06;5075947;28;45633;-74
2023/01/02 01:15:36;;;;;;;;;2.00;0.00;;;;;15.57;100.00;100997.13;5077425;28;45622;-73
2023/01/02 01:18:02;;;;;;;;;0.00;0.00;;;;;15.56;100.00;100986.50;5058347;28;63532;-73
2023/01/02 01:20:27;;;;;;;;;1.00;1.00;;;;;15.54;100.00;100991.78;5077205;28;45529;-73
2023/01/02 01:22:53;;;;;;;;;1.00;1.00;;;;;15.54;100.00;100993.56;5076762;28;45334;-74
2023/01/02 01:25:18;;;;;;;;;1.67;1.67;;;;;15.50;100.00;100994.47;5077136;28;53994;-73
2023/01/02 01:27:44;;;;;;;;;0.00;0.00;;;;;15.48;100.00;101004.25;5057693;28;45837;-74
2023/01/02 01:30:09;;;;;;;;;1.00;1.00;;;;;15.49;100.00;101009.56;5076568;28;60005;-74
2023/01/02 01:32:35;;;;;;;;;0.00;0.00;;;;;15.48;100.00;101004.25;5076037;28;45339;-74
2023/01/02 01:35:00;;;;;;;;;1.00;1.00;;;;;15.46;100.00;101005.16;5076555;28;45496;-73
2023/01/02 01:37:26;;;;;;;;;3.00;1.00;;;;;15.45;100.00;101005.19;5076922;28;46537;-72
2023/01/02 01:39:51;;;;;;;;;1.00;1.00;;;;;15.43;100.00;100997.19;5075219;28;45364;-75
2023/01/02 01:42:17;;;;;;;;;1.00;1.00;;;;;15.38;100.00;101004.31;5076160;28;57565;-75
2023/01/02 01:44:51;;;;;;;;;2.00;0.00;;;;;15.37;100.00;101007.88;5075452;28;45476;-74
2023/01/02 01:47:20;;;;;;;;;1.67;1.00;;;;;15.35;100.00;100993.72;5051975;28;45751;-74
2023/01/02 01:49:46;;;;;;;;;1.00;0.33;;;;;15.34;100.00;101004.34;5076747;28;45505;-74
2023/01/02 01:52:15;;;;;;;;;2.33;1.00;;;;;15.31;100.00;101002.59;5076808;28;45345;-74
2023/01/02 01:55:11;;;;;;;;;0.00;0.00;;;;;15.32;100.00;101000.81;5076706;28;45369;-75
2023/01/02 01:57:51;;;;;;;;;1.00;1.00;;;;;15.31;100.00;101007.91;5059619;28;46734;-75
2023/01/02 02:00:16;;;;;;;;;3.00;0.00;;;;;15.31;100.00;101009.69;5037085;28;45555;-75
2023/01/02 02:02:45;;;;;;;;;1.00;1.00;;;;;15.27;100.00;101022.13;5075188;28;54176;-75
2023/01/02 02:05:14;;;;;;;;;2.00;1.00;;;;;15.25;100.00;101033.69;5075422;28;45343;-73
2023/01/02 02:07:46;;;;;;;;;2.00;0.33;;;;;15.22;100.00;101039.00;5076065;28;46599;-75
2023/01/02 02:10:12;;;;;;;;;1.00;1.00;;;;;15.19;100.00;101043.44;5056151;28;46138;-74
2023/01/02 02:12:37;;;;;;;;;2.00;1.00;;;;;15.19;100.00;101048.78;5058474;28;45281;-74
2023/01/02 02:15:03;;;;;;;;;0.67;0.67;;;;;15.19;100.00;101055.88;5076183;28;54250;-75
2023/01/02 02:17:40;;;;;;;;;0.00;0.00;;;;;15.18;100.00;101059.44;5075326;28;46432;-75
2023/01/02 02:20:16;;;;;;;;;1.33;0.67;;;;;15.15;100.00;101052.31;5075434;28;45541;-74
2023/01/02 02:23:03;;;;;;;;;3.00;0.67;;;;;15.15;100.00;101064.75;5057799;28;45465;-74
2023/01/02 02:25:51;;;;;;;;;2.00;0.00;;;;;15.14;100.00;101061.19;5075579;28;45382;-73
2023/01/02 02:28:58;;;;;;;;;1.00;1.00;;;;;15.13;100.00;101074.53;5061267;28;46030;-74
2023/01/02 02:31:45;;;;;;;;;0.00;0.00;;;;;15.11;100.00;101070.97;5071864;28;45510;-76
2023/01/02 02:34:20;;;;;;;;;0.00;0.00;;;;;15.10;100.00;101072.75;5075478;28;45374;-75
2023/01/02 02:36:53;;;;;;;;;0.00;0.00;;;;;15.09;100.00;101070.09;5058063;28;45482;-74
2023/01/02 02:39:24;;;;;;;;;2.00;0.00;;;;;15.06;100.00;101070.97;5057491;28;45861;-74
2023/01/02 02:42:01;;;;;;;;;1.00;0.00;;;;;15.02;100.00;101074.56;5076058;28;45536;-74
2023/01/02 02:44:54;;;;;;;;;0.00;0.00;;;;;14.98;100.00;101063.94;5058182;28;45430;-75
2023/01/02 02:47:40;;;;;;;;;0.00;0.00;;;;;14.97;100.00;101067.44;5074744;28;45549;-74
2023/01/02 02:50:08;;;;;;;;;0.00;0.00;;;;;14.95;100.00;101072.78;5074719;28;46588;-74
2023/01/02 02:52:49;;;;;;;;;0.00;0.00;;;;;14.91;100.00;101074.59;5075162;28;45387;-75
2023/01/02 02:55:25;;;;;;;;;0.00;0.00;;;;;14.91;100.00;101071.00;5073910;28;45431;-73
2023/01/02 02:57:52;;;;;;;;;0.00;0.00;;;;;14.87;100.00;101061.31;5071040;28;45357;-73
2023/01/02 03:00:19;;;;;;;;;0.00;0.00;;;;;14.85;100.00;101063.94;5078089;28;56327;-75
2023/01/02 03:02:45;;;;;;;;;0.00;0.00;;;;;14.86;100.00;101067.47;5079173;28;45312;-76
2023/01/02 03:05:15;;;;;;;;;0.00;0.00;;;;;14.85;100.00;101073.69;5079599;28;45331;-75
2023/01/02 03:07:48;;;;;;;;;0.00;0.00;;;;;14.84;100.00;101078.13;5079419;28;45418;-73
2023/01/02 03:10:15;;;;;;;;;0.00;0.00;;;;;14.83;100.00;101084.34;5058356;28;45578;-74
2023/01/02 03:12:53;;;;;;;;;0.00;0.00;;;;;14.82;100.00;101089.69;5043918;28;45575;-74
2023/01/02 03:15:23;;;;;;;;;0.00;0.00;;;;;14.79;100.00;101079.91;5080172;28;45290;-74
2023/01/02 03:18:18;;;;;;;;;0.00;0.00;;;;;14.79;100.00;101084.34;5078750;28;45484;-75
2023/01/02 03:20:48;;;;;;;;;0.00;0.00;;;;;14.79;100.00;101089.66;5078624;28;46369;-76
2023/01/02 03:23:18;;;;;;;;;0.00;0.00;;;;;14.75;100.00;101075.50;5077991;28;45234;-74
2023/01/02 03:25:44;;;;;;;;;0.00;0.00;;;;;14.74;100.00;101072.84;5078023;28;45351;-74
2023/01/02 03:28:11;;;;;;;;;0.00;0.00;;;;;14.73;100.00;101074.63;5077868;28;45617;-74
2023/01/02 03:30:38;;;;;;;;;1.00;0.00;;;;;14.75;100.00;101077.25;5077317;28;46181;-74
2023/01/02 03:33:14;;;;;;;;;0.00;0.00;;;;;14.73;100.00;101079.06;5078519;28;45488;-74
2023/01/02 03:35:46;;;;;;;;;0.00;0.00;;;;;14.72;100.00;101085.25;5061064;28;45356;-74
2023/01/02 03:38:15;;;;;;;;;1.00;0.00;;;;;14.71;100.00;101087.03;5077767;28;45771;-74
2023/01/02 03:40:44;;;;;;;;;0.00;0.00;;;;;14.70;100.00;101092.34;5060622;28;46771;-74
2023/01/02 03:43:15;;;;;;;;;0.00;0.00;;;;;14.67;100.00;101102.09;5060133;28;45499;-73
2023/01/02 03:45:48;;;;;;;;;0.00;0.00;;;;;14.64;100.00;101107.41;5078074;28;45351;-75
2023/01/02 03:48:38;;;;;;;;;0.00;0.00;;;;;14.64;100.00;101110.06;5078364;28;45876;-75
2023/01/02 03:51:04;;;;;;;;;0.00;0.00;;;;;14.58;100.00;101118.03;5060394;28;46476;-73
2023/01/02 03:53:31;;;;;;;;;0.00;0.00;;;;;14.58;100.00;101127.78;5058729;28;50571;-73
2023/01/02 03:55:56;;;;;;;;;0.00;0.00;;;;;14.58;100.00;101131.34;5060359;28;45515;-73
2023/01/02 03:58:27;;;;;;;;;0.00;0.00;;;;;14.54;100.00;101118.97;5066484;28;45577;-73
2023/01/02 04:01:03;;;;;;;;;0.00;0.00;;;;;14.56;100.00;101137.56;5072673;28;46382;-74
2023/01/02 04:04:01;;;;;;;;;0.00;0.00;;;;;14.53;100.00;101138.41;5060225;28;45454;-74
2023/01/02 04:06:36;;;;;;;;;0.00;0.00;;;;;14.50;100.00;101138.44;5064166;28;45157;-74
2023/01/02 04:09:04;;;;;;;;;0.00;0.00;;;;;14.50;100.00;101134.91;5078248;28;45655;-74
2023/01/02 04:11:32;;;;;;;;;0.00;0.00;;;;;14.46;100.00;101139.28;5077835;28;46669;-75
2023/01/02 04:13:59;;;;;;;;;0.00;0.00;;;;;14.44;100.00;101137.53;5075873;28;58548;-76
2023/01/02 04:16:29;;;;;;;;;1.00;0.00;;;;;14.42;100.00;101142.81;5077450;28;45234;-74
2023/01/02 04:19:04;;;;;;;;;0.00;0.00;;;;;14.37;100.00;101141.94;5076656;28;46336;-75
2023/01/02 04:21:33;;;;;;;;;0.00;0.00;;;;;14.37;100.00;101142.81;5060097;28;46236;-77
2023/01/02 04:24:04;;;;;;;;;0.00;0.00;;;;;14.37;100.00;101142.81;5055085;28;45312;-76
2023/01/02 04:26:48;;;;;;;;;0.00;0.00;;;;;14.32;100.00;101139.25;5078672;28;45520;-74
2023/01/02 04:29:14;;;;;;;;;0.00;0.00;;;;;14.31;100.00;101137.50;5075790;28;45628;-74
2023/01/02 04:31:55;;;;;;;;;0.00;0.00;;;;;14.32;100.00;101152.53;5078054;28;45990;-73
2023/01/02 04:34:22;;;;;;;;;1.00;0.00;;;;;14.29;100.00;101157.00;5040638;28;45374;-73
2023/01/02 04:36:47;;;;;;;;;0.00;0.00;;;;;14.31;100.00;101155.22;5075520;28;56330;-75
2023/01/02 04:39:13;;;;;;;;;0.00;0.00;;;;;14.30;100.00;101156.97;5059270;28;53466;-75
2023/01/02 04:41:39;;;;;;;;;0.00;0.00;;;;;14.33;100.00;101167.63;5076082;28;50385;-75
2023/01/02 04:44:05;;;;;;;;;1.00;0.00;;;;;14.33;100.00;101177.38;5060126;28;45368;-73
2023/01/02 04:46:30;;;;;;;;;1.00;0.00;;;;;14.29;100.00;101170.28;5077543;28;45361;-75
2023/01/02 04:48:56;;;;;;;;;0.00;0.00;;;;;14.28;100.00;101176.47;5059969;28;45532;-75
2023/01/02 04:51:22;;;;;;;;;0.00;0.00;;;;;14.27;100.00;101182.66;5075974;28;55327;-74
2023/01/02 04:53:48;;;;;;;;;1.00;0.00;;;;;14.23;100.00;101183.56;5077459;28;45336;-74
2023/01/02 04:56:14;;;;;;;;;0.00;0.00;;;;;14.22;100.00;101187.97;5075385;28;45389;-73
2023/01/02 04:58:40;;;;;;;;;0.00;0.00;;;;;14.22;100.00;101192.38;5057923;28;45539;-75
2023/01/02 05:01:10;;;;;;;;;0.00;0.00;;;;;14.19;100.00;101193.28;5075562;28;45658;-74
2023/01/02 05:03:40;;;;;;;;;0.00;0.00;;;;;14.19;100.00;101187.09;5075282;28;45328;-74
2023/01/02 05:06:05;;;;;;;;;0.00;0.00;;;;;14.16;100.00;101191.47;5057704;28;45490;-75
2023/01/02 05:08:31;;;;;;;;;0.00;0.00;;;;;14.17;100.00;101213.66;5059478;28;45210;-75
2023/01/02 05:10:56;;;;;;;;;0.00;0.00;;;;;14.15;100.00;101205.66;5076976;28;45701;-75
2023/01/02 05:13:21;;;;;;;;;0.00;0.00;;;;;14.14;100.00;101209.19;5058704;28;58505;-74
2023/01/02 05:15:54;;;;;;;;;0.00;0.00;;;;;14.14;100.00;101213.63;5077275;28;45742;-75
2023/01/02 05:18:20;;;;;;;;;0.00;0.00;;;;;14.11;100.00;101229.53;5069966;28;45407;-73
2023/01/02 05:20:45;;;;;;;;;0.00;0.00;;;;;14.10;100.00;101226.00;5075241;28;62497;-75
2023/01/02 05:25:54;;;;;;;;;0.00;0.00;;;;;14.06;100.00;101231.28;5077058;28;45486;-74
2023/01/02 05:28:20;;;;;;;;;0.00;0.00;;;;;14.08;100.00;101251.66;5072478;28;50505;-74
2023/01/02 05:30:45;;;;;;;;;0.00;0.00;;;;;14.07;100.00;101247.25;5075828;28;59296;-74
2023/01/02 05:33:10;;;;;;;;;0.33;0.00;;;;;14.09;100.00;101258.75;5076630;28;45325;-75
2023/01/02 05:35:35;;;;;;;;;0.33;0.00;;;;;14.05;100.00;101256.06;5076002;28;54839;-73
2023/01/02 05:38:01;;;;;;;;;0.00;0.00;;;;;14.04;100.00;101267.59;5076667;28;51336;-75
2023/01/02 05:40:26;;;;;;;;;1.00;0.00;;;;;14.04;100.00;101271.13;5058418;28;46594;-74
2023/01/02 05:42:52;;;;;;;;;0.00;0.00;;;;;14.04;100.00;101283.50;5076565;28;54870;-75
2023/01/02 05:45:18;;;;;;;;;0.00;0.00;;;;;14.04;100.00;101280.84;5058865;28;45260;-74
2023/01/02 05:47:43;;;;;;;;;0.00;0.00;;;;;14.04;100.00;101279.09;5075775;28;45573;-74
2023/01/02 05:50:09;;;;;;;;;0.00;0.00;;;;;14.02;100.00;101267.59;5057474;28;54017;-76
2023/01/02 05:52:34;;;;;;;;;0.00;0.00;;;;;14.03;100.00;101274.66;5075740;28;56714;-75
2023/01/02 05:54:59;;;;;;;;;0.00;0.00;;;;;14.05;100.00;101283.50;5075675;28;51367;-75
2023/01/02 05:57:25;;;;;;;;;0.00;0.00;;;;;14.05;100.00;101287.94;5076514;28;45519;-74
2023/01/02 05:59:50;;;;;;;;;1.00;0.00;;;;;14.03;100.00;101290.59;5075666;28;59646;-73
2023/01/02 06:02:15;;;;;;;;;0.00;0.00;;;;;14.03;100.00;101285.28;5075727;28;52758;-73
2023/01/02 06:04:40;;;;;;;;;0.00;0.00;;;;;14.01;100.00;101278.16;5075628;28;51265;-75
2023/01/02 06:07:06;;;;;;;;;0.00;0.00;;;;;14.03;100.00;101287.06;5076148;28;52583;-74
2023/01/02 06:09:31;;;;;;;;;0.00;0.00;;;;;14.03;100.00;101289.72;5076544;28;48639;-75
2023/01/02 06:11:56;;;;;;;;;0.00;0.00;;;;;14.03;100.00;101290.59;5057517;28;55262;-74
2023/01/02 06:14:22;;;;;;;;;0.00;0.00;;;;;14.03;100.00;101287.94;5075006;28;45617;-75
2023/01/02 06:16:48;;;;;;;;;0.00;0.00;;;;;14.03;100.00;101295.91;5076540;28;45507;-75
2023/01/02 06:19:13;;;;;;;;;0.67;0.00;;;;;14.05;100.00;101304.75;5074299;28;45584;-77
2023/01/02 06:21:38;;;;;;;;;0.00;0.00;;;;;14.06;100.00;101306.56;5057348;28;60737;-74
2023/01/02 06:24:04;;;;;;;;;0.00;0.00;;;;;14.08;100.00;101298.59;5075509;28;53465;-74
2023/01/02 06:26:30;;;;;;;;;0.00;0.00;;;;;14.08;100.00;101304.78;5076590;28;45388;-75
2023/01/02 06:28:56;;;;;;;;;0.00;0.00;;;;;14.07;100.00;101300.34;5075931;28;45642;-74
2023/01/02 06:31:25;;;;;;;;;0.00;0.00;;;;;14.08;100.00;101307.44;5074274;28;45495;-76
2023/01/02 06:33:54;;;;;;;;;1.00;0.00;;;;;14.09;100.00;101322.47;5058009;28;45328;-75
2023/01/02 06:36:20;;;;;;;;;0.00;0.00;;;;;14.11;100.00;101327.78;5075143;28;45594;-73
2023/01/02 06:38:45;;;;;;;;;0.00;0.00;;;;;14.10;100.00;101334.88;5074488;28;46758;-75
2023/01/02 06:41:11;;;;;;;;;0.00;0.00;;;;;14.08;100.00;101328.69;5074142;28;45414;-73
2023/01/02 06:43:41;;;;;;;;;0.00;0.00;;;;;14.10;100.00;101326.03;5043091;28;45336;-75
2023/01/02 06:46:07;;;;;;;;;0.00;0.00;;;;;14.11;100.00;101339.31;5054157;27;46325;-73
2023/01/02 06:48:33;;;;;;;;;0.00;0.00;;;;;14.11;100.00;101335.75;5050809;28;45466;-73
2023/01/02 06:50:59;;;;;;;;;0.00;0.00;;;;;14.10;100.00;101344.59;5071509;28;45381;-74
2023/01/02 06:53:27;;;;;;;;;0.67;0.00;;;;;14.07;100.00;101340.19;5070908;28;46085;-73
2023/01/02 06:55:56;;;;;;;;;0.00;0.00;;;;;14.06;100.00;101343.72;5073806;28;55118;-73
2023/01/02 06:58:23;;;;;;;;;0.00;0.00;;;;;14.06;100.00;101342.81;5070801;28;46735;-72
2023/01/02 07:00:49;;;;;;;;;0.00;0.00;;;;;14.08;100.00;101338.41;5068962;28;45328;-74
2023/01/02 07:03:16;;;;;;;;;0.00;0.00;;;;;14.08;100.00;101354.34;5074600;28;45393;-74
2023/01/02 07:05:41;;;;;;;;;0.00;0.00;;;;;14.07;100.00;101350.81;5055320;28;45540;-72
2023/01/02 07:08:07;;;;;;;;;0.00;0.00;;;;;14.06;100.00;101351.69;5072918;28;45881;-74
2023/01/02 07:10:32;;;;;;;;;0.00;0.00;;;;;14.04;100.00;101349.91;5072898;28;45213;-73
2023/01/02 07:12:58;;;;;;;;;0.33;0.00;;;;;14.04;100.00;101356.09;5071245;28;57474;-73
2023/01/02 07:15:23;;;;;;;;;0.00;0.00;;;;;14.03;100.00;101359.63;5074519;28;51495;-73
2023/01/02 07:17:48;;;;;;;;;1.67;0.00;;;;;14.05;100.00;101363.16;5070984;28;57160;-73
2023/01/02 07:20:14;;;;;;;;;0.00;0.00;;;;;14.03;100.00;101351.66;5072066;28;56707;-75
2023/01/02 07:22:39;;;;;;;;;1.00;0.00;;;;;14.03;100.00;101356.09;5073751;28;45429;-73
2023/01/02 07:25:05;;;;;;;;;0.00;0.00;;;;;14.02;100.00;101356.97;5070234;28;51400;-72
2023/01/02 07:27:31;;;;;;;;;0.00;0.00;;;;;13.98;100.00;101350.75;5072198;28;45956;-72
2023/01/02 07:29:57;;;;;;;;;0.00;0.00;;;;;13.99;100.00;101346.31;5073805;28;48271;-74
2023/01/02 07:32:22;;;;;;;;;0.00;0.00;;;;;13.97;100.00;101356.94;5072211;28;53474;-73
2023/01/02 07:34:48;;;;;;;;;1.00;0.00;;;;;13.97;100.00;101356.06;5070586;28;45313;-72
2023/01/02 07:37:13;;;;;;;;;0.00;0.00;;;;;13.94;100.00;101346.28;5074384;28;48942;-74
2023/01/02 07:39:39;;;;;;;;;0.00;0.00;;;;;13.94;100.00;101351.59;5074761;28;45333;-75
2023/01/02 07:42:04;;;;;;;;;0.00;0.00;;;;;13.91;100.00;101351.59;5072204;28;47905;-73
2023/01/02 07:44:29;;;;;;;;;0.00;0.00;;;;;13.91;100.00;101361.34;5075642;28;45813;-73
2023/01/02 07:46:55;;;;;;;;;0.00;0.00;;;;;13.89;100.00;101385.19;5078165;28;61036;-73
2023/01/02 07:49:20;;;;;;;;;1.00;0.00;;;;;13.84;100.00;101393.13;5076911;27;59075;-73
2023/01/02 07:51:46;;;;;;;;;0.00;0.00;;;;;13.82;100.00;101397.56;5070835;28;55619;-73
2023/01/02 07:54:11;;;;;;;;;1.00;0.00;;;;;13.81;100.00;101405.50;5072785;27;46747;-72
2023/01/02 07:56:37;;;;;;;;;0.00;0.00;;;;;13.78;100.00;101405.47;5068965;28;62003;-74
2023/01/02 07:59:02;;;;;;;;;0.67;0.00;;;;;13.74;100.00;101403.66;5072964;28;57847;-73
2023/01/02 08:01:27;;;;;;;;;0.00;0.00;;;;;13.76;100.00;101407.25;5075089;28;57085;-74
2023/01/02 08:03:53;;;;;;;;;2.33;0.00;;;;;13.76;100.00;101416.09;5077493;28;45443;-73
2023/01/02 08:06:18;;;;;;;;;0.00;0.00;;;;;13.77;100.00;101425.84;5076016;28;50837;-74
2023/01/02 08:08:44;;;;;;;;;0.00;0.00;;;;;13.77;100.00;101435.56;5055978;28;45601;-73
2023/01/02 08:11:20;;;;;;;;;0.00;0.00;;;;;13.78;100.00;101447.94;5071439;27;54248;-73
2023/01/02 08:13:46;;;;;;;;;0.00;0.00;;;;;13.78;100.00;101461.22;5056134;28;46077;-74
2023/01/02 08:16:14;;;;;;;;;0.00;0.00;;;;;13.78;100.00;101450.59;5057758;28;47097;-73
2023/01/02 08:18:39;;;;;;;;;0.00;0.00;;;;;13.75;100.00;101445.28;5075438;28;45449;-75
2023/01/02 08:21:05;;;;;;;;;1.00;0.00;;;;;13.77;100.00;101456.78;5073544;28;49288;-73
2023/01/02 08:23:31;;;;;;;;;0.00;0.00;;;;;13.79;100.00;101466.53;5052784;28;45699;-73
2023/01/02 08:25:57;;;;;;;;;0.00;0.00;;;;;13.79;100.00;101465.66;5074405;28;46257;-76
2023/01/02 08:28:23;;;;;;;;;0.00;0.00;;;;;13.80;100.00;101476.28;5071187;28;45387;-73
2023/01/02 08:30:48;;;;;;;;;0.00;0.00;;;;;13.82;100.00;101482.50;5074201;28;45511;-74
2023/01/02 08:33:14;;;;;;;;;0.67;0.00;;;;;13.82;100.00;101485.16;5056109;28;45470;-73
2023/01/02 08:35:39;;;;;;;;;0.00;0.00;;;;;13.85;100.00;101484.31;5074229;28;60410;-74
2023/01/02 08:38:04;;;;;;;;;0.00;0.00;;;;;13.85;100.00;101476.34;5074320;28;53812;-73
2023/01/02 08:40:30;;;;;;;;;0.00;0.00;;;;;13.87;100.00;101474.56;5074260;28;53304;-74
2023/01/02 08:42:55;;;;;;;;;0.00;0.00;;;;;13.86;100.00;101496.69;5074973;27;53513;-73
2023/01/02 08:45:20;;;;;;;;;0.00;0.00;;;;;13.84;100.00;101501.06;5074539;28;45807;-74
2023/01/02 08:47:46;;;;;;;;;0.00;0.00;;;;;13.82;100.00;101500.19;5074561;28;54012;-73
2023/01/02 08:52:46;;;;;;;;;0.00;0.00;;;;;13.78;100.00;101522.28;5048264;25;45586;-74
2023/01/02 08:55:12;;;;;;;;;0.00;0.00;;;;;13.74;100.00;101532.00;5072977;28;58452;-73
2023/01/02 08:57:37;;;;;;;;;1.00;0.00;;;;;13.69;100.00;101544.31;5076457;28;45446;-74
2023/01/02 09:00:04;;;;;;;;;0.00;0.00;;;;;13.63;100.00;101563.72;5069130;27;45391;-74
2023/01/02 09:02:29;;;;;;;;;0.00;0.00;;;;;13.53;100.00;101572.47;5074296;28;45493;-72
2023/01/02 09:04:54;;;;;;;;;0.33;0.00;;;;;13.47;100.00;101569.72;5031923;28;47459;-72
2023/01/02 09:07:20;;;;;;;;;0.00;0.00;;;;;13.41;100.00;101584.69;5052873;28;54382;-73
2023/01/02 09:09:45;;;;;;;;;0.00;0.00;;;;;13.36;100.00;101587.28;5074645;28;45379;-74
2023/01/02 09:12:11;;;;;;;;;0.00;0.00;;;;;13.35;100.00;101588.16;5070779;27;46376;-71
2023/01/02 09:14:36;;;;;;;;;1.00;0.00;;;;;13.33;100.00;101603.19;5073726;27;61224;-71
2023/01/02 09:17:02;;;;;;;;;0.00;0.00;;;;;13.26;100.00;101598.66;5057488;28;45708;-72
2023/01/02 09:19:27;;;;;;;;;0.00;0.00;;;;;13.22;100.00;101592.44;5075587;27;45426;-71
2023/01/02 09:21:52;;;;;;;;;0.00;0.00;;;;;13.19;100.00;101588.81;5071493;28;45244;-73
2023/01/02 09:24:18;;;;;;;;;0.00;0.00;;;;;13.16;100.00;101576.44;5075268;27;45967;-73
2023/01/02 09:26:43;;;;;;;;;0.00;0.00;;;;;13.17;100.00;101567.59;5073455;28;45463;-74
2023/01/02 09:29:10;;;;;;;;;0.00;0.00;;;;;13.23;100.00;101580.06;5071728;28;45490;-72
2023/01/02 09:31:36;;;;;;;;;0.00;0.00;;;;;13.28;100.00;101589.84;5074743;28;47003;-73
2023/01/02 09:34:02;;;;;;;;;0.00;0.00;;;;;13.34;100.00;101587.28;5057748;28;46574;-72
2023/01/02 09:36:27;;;;;;;;;0.00;0.00;;;;;13.39;100.00;101605.91;5069417;28;45512;-72
2023/01/02 09:38:58;;;;;;;;;0.00;0.00;;;;;13.40;100.00;101609.44;5073174;28;54633;-73
2023/01/02 09:41:34;;;;;;;;;0.00;0.00;;;;;13.45;100.00;101623.66;5073730;27;46207;-73
2023/01/02 09:44:20;;;;;;;;;0.00;0.00;;;;;13.45;100.00;101613.94;5073902;28;45984;-73
2023/01/02 09:47:04;;;;;;;;;1.00;0.00;;;;;13.51;100.00;101616.66;5074602;27;45534;-73
2023/01/02 09:49:43;;;;;;;;;0.00;0.00;;;;;13.54;100.00;101619.34;5041708;28;45412;-73
2023/01/02 09:52:19;;;;;;;;;0.00;0.00;;;;;13.54;100.00;101624.66;5056065;28;45442;-73
2023/01/02 09:54:45;;;;;;;;;0.00;0.00;;;;;13.55;100.00;101647.66;5068559;28;45547;-73
2023/01/02 09:57:25;;;;;;;;;0.00;0.00;;;;;13.55;100.00;101652.97;5072994;28;57066;-73
2023/01/02 10:00:09;;;;;;;;;0.00;0.00;;;;;13.55;100.00;101665.34;5075242;28;45347;-75
2023/01/02 10:03:05;;;;;;;;;0.00;0.00;;;;;13.55;100.00;101670.66;5069910;27;45530;-74
2023/01/02 10:05:39;;;;;;;;;0.00;0.00;;;;;13.55;100.00;101681.25;5071620;28;46131;-74
2023/01/02 10:08:23;;;;;;;;;0.00;0.00;;;;;13.51;100.00;101677.66;5074141;28;45604;-74
2023/01/02 10:11:02;;;;;;;;;1.00;0.00;;;;;13.49;100.00;101667.94;5075383;28;45468;-76
2023/01/02 10:13:48;;;;;;;;;0.00;0.00;;;;;13.51;100.00;101671.47;5059881;28;45274;-73
2023/01/02 10:16:21;;;;;;;;;0.00;0.00;;;;;13.52;100.00;101665.28;5069992;28;46432;-74
2023/01/02 10:18:49;;;;;;;;;1.67;0.00;;;;;13.56;100.00;101667.13;5054037;28;45588;-74
2023/01/02 10:21:24;;;;;;;;;0.00;0.00;;;;;13.61;100.00;101668.94;5055422;28;45471;-75
2023/01/02 10:23:54;;;;;;;;;0.33;0.33;;;;;13.66;100.00;101653.09;5070183;28;46813;-73
2023/01/02 10:26:20;;;;;;;;;0.33;0.33;;;;;13.74;100.00;101659.38;5055043;28;45755;-73
2023/01/02 10:28:51;;;;;;;;;1.33;0.00;;;;;13.82;100.00;101668.31;5068875;27;45499;-72
2023/01/02 10:31:26;;;;;;;;;0.00;0.00;;;;;13.87;100.00;101657.75;5071342;27;45466;-72
2023/01/02 10:33:59;;;;;;;;;1.67;0.00;;;;;13.91;100.00;101664.00;5071794;27;45392;-74
2023/01/02 10:36:38;;;;;;;;;0.33;0.00;;;;;13.92;100.00;101660.47;5066923;28;46590;-76
2023/01/02 10:39:06;;;;;;;;;0.00;0.00;;;;;13.87;100.00;101669.25;5068735;28;45516;-74
2023/01/02 10:41:32;;;;;;;;;0.00;0.00;;;;;13.86;100.00;101675.44;5070265;28;45520;-75
2023/01/02 10:44:20;;;;;;;;;0.33;0.00;;;;;13.88;100.00;101680.75;5068123;28;45591;-74
2023/01/02 10:46:46;;;;;;;;;0.00;0.00;;;;;13.91;100.00;101685.22;5070514;28;47380;-75
2023/01/02 10:49:11;;;;;;;;;1.67;0.00;;;;;13.91;100.00;101682.56;5069606;27;46078;-74
2023/01/02 10:51:42;;;;;;;;;0.00;0.00;;;;;13.94;100.00;101683.47;5067463;28;48932;-74
2023/01/02 10:54:08;;;;;;;;;1.00;0.00;;;;;13.92;100.00;101698.50;5055112;28;45471;-72
2023/01/02 10:56:37;;;;;;;;;1.33;0.00;;;;;13.99;100.00;101704.78;5069107;28;46670;-74
2023/01/02 10:59:03;;;;;;;;;0.00;0.00;;;;;14.02;100.00;101716.34;5054672;28;45265;-74
2023/01/02 11:01:28;;;;;;;;;1.00;1.00;;;;;14.00;100.00;101718.06;5060106;27;45443;-75
2023/01/02 11:03:54;;;;;;;;;0.00;0.00;;;;;14.05;100.00;101721.66;5040296;28;45187;-74
2023/01/02 11:06:22;;;;;;;;;0.00;0.00;;;;;14.11;100.00;101715.53;5074895;28;46588;-74
2023/01/02 11:09:17;;;;;;;;;0.00;0.00;;;;;14.16;100.00;101714.69;5072956;28;45504;-74
2023/01/02 11:11:54;;;;;;;;;0.00;0.00;;;;;14.13;100.00;101720.00;5073285;27;45433;-74
2023/01/02 11:14:22;;;;;;;;;0.00;0.00;;;;;14.13;100.00;101725.31;5071646;28;45778;-74
2023/01/02 11:16:48;;;;;;;;;0.00;0.00;;;;;14.13;100.00;101721.75;5056147;28;46131;-74
2023/01/02 11:19:19;;;;;;;;;0.00;0.00;;;;;14.11;100.00;101732.38;5057047;27;45573;-74
2023/01/02 11:21:45;;;;;;;;;0.00;0.00;;;;;14.12;100.00;101738.56;5075578;28;45594;-75
2023/01/02 11:24:15;;;;;;;;;0.00;0.00;;;;;14.14;100.00;101740.34;5059883;28;45514;-74
2023/01/02 11:26:43;;;;;;;;;0.00;0.00;;;;;14.15;100.00;101720.88;5059214;28;46426;-74
2023/01/02 11:29:15;;;;;;;;;1.00;1.00;;;;;14.19;100.00;101726.25;5046943;28;45387;-75